Flight Number: EUR1105 Duration: 0:50
Departure: Gatwick Airport (EGKK) at 08:00 Distance: 164 Nm
Arrival: Liverpool Airport (EGGP) at 08:50 Equipment: DHC8

Weather Information
London / Gatwick Airport, United Kingdom (EGKK) 51-09N 000-11W 0M Jan 23, 2018 - 04:50 AM EST / 2018.01.23 0950 UTC
Wind: from the SSW (200 degrees) at 12 MPH (10 KT):0
Visibility: 2 mile(s):0
Sky conditions: overcast Weather: drizzle; mist Temperature: 50 F (10 C) Dew Point: 48 F (9 C) Relative Humidity: 93% Pressure (altimeter): 30.00 in. Hg (1016 hPa)
ob: EGKK 230950Z 20010KT 3500 DZ BR OVC004 10/09 Q1016 cycle: 10
Sunrise: 07:53 Sunset: 16:31 (UTC)

Liverpool Airport , United Kingdom (EGGP) 53-20N 002-51W Jan 23, 2018 - 04:50 AM EST / 2018.01.23 0950 UTC
Wind: from the S (170 degrees) at 12 MPH (10 KT):0
Visibility: greater than 7 mile(s):0
Sky conditions: mostly cloudy Temperature: 50 F (10 C) Dew Point: 50 F (10 C) Relative Humidity: 100% Pressure (altimeter): 29.74 in. Hg (1007 hPa)
ob: EGGP 230950Z 17010KT 9999 FEW011 SCT014 BKN021 10/10 Q1007 cycle: 10
Sunrise: 08:13 Sunset: 16:33 (UTC)

TAF:2018/01/23 06:51 TAF EGGP 230500Z 2306/2406 17010KT 9999 SCT030 TEMPO 2306/2315 6000 RADZ BKN012 TEMPO 2306/2406 19017G27KT PROB30 2306/2310 3000 RADZ BKN008

Previous Pireps for this route
Date Aircraft Flight time Fuel used Landing rate On time
2013-09-18DHC800.5321550No
2013-09-19DHC801.00618-6No
2013-09-29DHC80206780No
2013-11-10B1900D01.080-644No
2014-01-23B1900D02.08634-207No
2014-04-20B1900D1.026750No
2015-02-07B1900D0.516680Charter
2015-02-08B7370.3844570Charter
2015-02-19CRJ70001.135641-205Charter
2015-03-08B1900D0.56690Yes
2015-04-06B1900D01.16636-115Yes
2015-04-26B73700.495203-11Charter
2015-05-19B1900D00.56698-175Yes
2015-06-19B1900D1.387930No
2015-06-20B1900D1.492840No
2015-07-25B1900D00.57721-507Charter
2016-01-25CRJ70000.362069-222Charter
2016-03-15A3211.0168990Charter
2016-11-18DHC81.032790Yes
2016-12-18B7370.5070000Charter
(pireps marked green are flown by you)

Route map